sensor_id;sensor_type;location;lat;lon;timestamp;pressure;altitude;pressure_sealevel;temperature;humidity
51261;BME280;61705;46.228;24.812;2023-07-09T00:00:02;97869.38;;;14.86;81.70
51261;BME280;61705;46.228;24.812;2023-07-09T00:02:30;97868.53;;;14.86;81.41
51261;BME280;61705;46.228;24.812;2023-07-09T00:04:57;97870.22;;;14.87;81.28
51261;BME280;61705;46.228;24.812;2023-07-09T00:07:24;97867.81;;;14.98;81.58
51261;BME280;61705;46.228;24.812;2023-07-09T00:09:55;97871.13;;;14.87;80.89
51261;BME280;61705;46.228;24.812;2023-07-09T00:12:22;97871.25;;;14.70;81.75
51261;BME280;61705;46.228;24.812;2023-07-09T00:14:52;97871.69;;;14.62;82.71
51261;BME280;61705;46.228;24.812;2023-07-09T00:17:28;97878.59;;;14.51;83.07
51261;BME280;61705;46.228;24.812;2023-07-09T00:19:57;97885.81;;;14.33;83.98
51261;BME280;61705;46.228;24.812;2023-07-09T00:22:24;97890.63;;;14.10;84.68
51261;BME280;61705;46.228;24.812;2023-07-09T00:24:53;97880.06;;;14.25;83.89
51261;BME280;61705;46.228;24.812;2023-07-09T00:27:24;97890.34;;;14.31;84.33
51261;BME280;61705;46.228;24.812;2023-07-09T00:29:52;97887.00;;;14.27;83.30
51261;BME280;61705;46.228;24.812;2023-07-09T00:32:21;97888.63;;;14.30;82.91
51261;BME280;61705;46.228;24.812;2023-07-09T00:34:48;97897.91;;;14.22;82.85
51261;BME280;61705;46.228;24.812;2023-07-09T00:37:16;97891.91;;;14.03;83.47
51261;BME280;61705;46.228;24.812;2023-07-09T00:39:46;97889.91;;;13.91;84.20
51261;BME280;61705;46.228;24.812;2023-07-09T00:42:18;97889.06;;;13.74;84.78
51261;BME280;61705;46.228;24.812;2023-07-09T00:44:45;97879.41;;;13.89;84.01
51261;BME280;61705;46.228;24.812;2023-07-09T00:47:18;97888.13;;;14.07;83.72
51261;BME280;61705;46.228;24.812;2023-07-09T00:49:46;97896.81;;;13.95;83.71
51261;BME280;61705;46.228;24.812;2023-07-09T00:55:17;97889.34;;;13.86;83.39
51261;BME280;61705;46.228;24.812;2023-07-09T00:57:45;97893.59;;;13.72;83.78
51261;BME280;61705;46.228;24.812;2023-07-09T01:00:23;97893.88;;;13.35;85.20
51261;BME280;61705;46.228;24.812;2023-07-09T01:02:51;97886.44;;;13.41;85.45
51261;BME280;61705;46.228;24.812;2023-07-09T01:05:18;97888.50;;;13.52;84.88
51261;BME280;61705;46.228;24.812;2023-07-09T01:07:46;97891.06;;;13.54;84.22
51261;BME280;61705;46.228;24.812;2023-07-09T01:10:17;97895.31;;;13.58;84.35
51261;BME280;61705;46.228;24.812;2023-07-09T01:12:45;97897.16;;;13.56;83.61
51261;BME280;61705;46.228;24.812;2023-07-09T01:15:14;97891.69;;;13.59;83.84
51261;BME280;61705;46.228;24.812;2023-07-09T01:17:41;97891.28;;;13.33;84.54
51261;BME280;61705;46.228;24.812;2023-07-09T01:20:14;97891.06;;;13.20;84.98
51261;BME280;61705;46.228;24.812;2023-07-09T01:22:43;97896.16;;;13.25;85.08
51261;BME280;61705;46.228;24.812;2023-07-09T01:25:10;97899.09;;;13.19;85.42
51261;BME280;61705;46.228;24.812;2023-07-09T01:27:39;97895.91;;;13.12;86.52
51261;BME280;61705;46.228;24.812;2023-07-09T01:30:09;97898.50;;;13.14;86.35
51261;BME280;61705;46.228;24.812;2023-07-09T01:32:36;97896.16;;;13.25;85.09
51261;BME280;61705;46.228;24.812;2023-07-09T01:35:06;97900.44;;;13.27;84.53
51261;BME280;61705;46.228;24.812;2023-07-09T01:37:34;97902.00;;;13.32;84.33
51261;BME280;61705;46.228;24.812;2023-07-09T01:40:01;97909.16;;;13.47;84.93
51261;BME280;61705;46.228;24.812;2023-07-09T01:42:45;97901.94;;;13.49;84.50
51261;BME280;61705;46.228;24.812;2023-07-09T01:45:13;97902.84;;;13.15;84.97
51261;BME280;61705;46.228;24.812;2023-07-09T01:47:42;97905.66;;;13.12;85.76
51261;BME280;61705;46.228;24.812;2023-07-09T01:50:10;97900.06;;;13.00;85.58
51261;BME280;61705;46.228;24.812;2023-07-09T01:52:38;97899.91;;;12.86;86.39
51261;BME280;61705;46.228;24.812;2023-07-09T01:55:11;97905.59;;;12.96;86.54
51261;BME280;61705;46.228;24.812;2023-07-09T01:57:38;97912.84;;;12.75;86.30
51261;BME280;61705;46.228;24.812;2023-07-09T02:00:08;97909.66;;;12.86;86.84
51261;BME280;61705;46.228;24.812;2023-07-09T02:02:37;97922.13;;;12.84;86.59
51261;BME280;61705;46.228;24.812;2023-07-09T02:05:10;97922.53;;;12.76;86.37
51261;BME280;61705;46.228;24.812;2023-07-09T02:07:37;97930.00;;;12.68;86.93
51261;BME280;61705;46.228;24.812;2023-07-09T02:10:03;97929.94;;;12.69;86.97
51261;BME280;61705;46.228;24.812;2023-07-09T02:12:30;97925.34;;;12.73;86.55
51261;BME280;61705;46.228;24.812;2023-07-09T02:14:56;97927.59;;;12.63;86.51
51261;BME280;61705;46.228;24.812;2023-07-09T02:17:23;97939.00;;;12.46;86.41
51261;BME280;61705;46.228;24.812;2023-07-09T02:19:50;97931.75;;;12.32;87.03
51261;BME280;61705;46.228;24.812;2023-07-09T02:22:16;97946.56;;;12.37;87.27
51261;BME280;61705;46.228;24.812;2023-07-09T02:24:45;97939.47;;;12.37;86.79
51261;BME280;61705;46.228;24.812;2023-07-09T02:27:17;97941.66;;;12.46;86.57
51261;BME280;61705;46.228;24.812;2023-07-09T02:29:43;97945.47;;;12.41;86.88
51261;BME280;61705;46.228;24.812;2023-07-09T02:32:10;97945.13;;;12.29;86.81
51261;BME280;61705;46.228;24.812;2023-07-09T02:34:40;97955.41;;;12.54;86.58
51261;BME280;61705;46.228;24.812;2023-07-09T02:37:06;97954.72;;;12.68;85.63
51261;BME280;61705;46.228;24.812;2023-07-09T02:39:33;97955.22;;;12.76;84.72
51261;BME280;61705;46.228;24.812;2023-07-09T02:41:59;97953.41;;;12.77;84.57
51261;BME280;61705;46.228;24.812;2023-07-09T02:44:26;97954.25;;;12.60;85.28
51261;BME280;61705;46.228;24.812;2023-07-09T02:46:52;97954.91;;;12.65;84.78
51261;BME280;61705;46.228;24.812;2023-07-09T02:49:19;97952.25;;;12.65;84.71
51261;BME280;61705;46.228;24.812;2023-07-09T02:51:46;97945.16;;;12.83;84.80
51261;BME280;61705;46.228;24.812;2023-07-09T02:54:12;97948.75;;;12.82;85.06
51261;BME280;61705;46.228;24.812;2023-07-09T02:56:39;97952.72;;;12.91;84.06
51261;BME280;61705;46.228;24.812;2023-07-09T02:59:05;97947.88;;;12.81;83.76
51261;BME280;61705;46.228;24.812;2023-07-09T03:01:32;97959.28;;;12.84;84.54
51261;BME280;61705;46.228;24.812;2023-07-09T03:04:01;97964.31;;;12.71;84.77
51261;BME280;61705;46.228;24.812;2023-07-09T03:06:30;97961.66;;;12.71;85.30
51261;BME280;61705;46.228;24.812;2023-07-09T03:08:59;97966.97;;;12.71;85.04
51261;BME280;61705;46.228;24.812;2023-07-09T03:11:27;97966.31;;;12.48;85.63
51261;BME280;61705;46.228;24.812;2023-07-09T03:13:54;97968.34;;;12.61;85.26
51261;BME280;61705;46.228;24.812;2023-07-09T03:16:21;97960.25;;;12.64;85.11
51261;BME280;61705;46.228;24.812;2023-07-09T03:18:47;97964.13;;;12.93;84.46
51261;BME280;61705;46.228;24.812;2023-07-09T03:21:14;97966.13;;;13.05;83.51
51261;BME280;61705;46.228;24.812;2023-07-09T03:23:41;97966.28;;;12.85;83.75
51261;BME280;61705;46.228;24.812;2023-07-09T03:26:07;97961.47;;;12.93;83.60
51261;BME280;61705;46.228;24.812;2023-07-09T03:28:34;97963.94;;;12.78;84.34
51261;BME280;61705;46.228;24.812;2023-07-09T03:31:01;97969.34;;;12.94;84.13
51261;BME280;61705;46.228;24.812;2023-07-09T03:33:27;97974.88;;;13.07;84.09
51261;BME280;61705;46.228;24.812;2023-07-09T03:35:54;97971.84;;;13.15;84.18
51261;BME280;61705;46.228;24.812;2023-07-09T03:38:20;97980.06;;;13.27;83.73
51261;BME280;61705;46.228;24.812;2023-07-09T03:40:51;97980.06;;;13.27;83.23
51261;BME280;61705;46.228;24.812;2023-07-09T03:43:18;97980.38;;;13.39;82.98
51261;BME280;61705;46.228;24.812;2023-07-09T03:45:45;97980.50;;;13.53;82.69
51261;BME280;61705;46.228;24.812;2023-07-09T03:48:13;97982.78;;;13.43;82.86
51261;BME280;61705;46.228;24.812;2023-07-09T03:50:41;97982.72;;;13.27;83.10
51261;BME280;61705;46.228;24.812;2023-07-09T03:53:09;97996.97;;;13.08;84.03
51261;BME280;61705;46.228;24.812;2023-07-09T03:55:35;97992.28;;;13.13;84.12
51261;BME280;61705;46.228;24.812;2023-07-09T03:58:02;97996.53;;;13.34;83.50
51261;BME280;61705;46.228;24.812;2023-07-09T04:00:29;97994.63;;;13.19;83.69
51261;BME280;61705;46.228;24.812;2023-07-09T04:02:56;97993.09;;;13.32;83.75
51261;BME280;61705;46.228;24.812;2023-07-09T04:05:23;97994.34;;;13.25;83.32
51261;BME280;61705;46.228;24.812;2023-07-09T04:07:50;98004.81;;;13.28;83.86
51261;BME280;61705;46.228;24.812;2023-07-09T04:10:18;98005.63;;;13.11;83.90
51261;BME280;61705;46.228;24.812;2023-07-09T04:12:44;97996.03;;;13.09;84.30
51261;BME280;61705;46.228;24.812;2023-07-09T04:15:11;97991.06;;;13.02;84.32
51261;BME280;61705;46.228;24.812;2023-07-09T04:17:41;98004.06;;;13.07;84.54
51261;BME280;61705;46.228;24.812;2023-07-09T04:20:09;98004.47;;;12.99;84.65
51261;BME280;61705;46.228;24.812;2023-07-09T04:22:36;98005.78;;;13.08;84.87
51261;BME280;61705;46.228;24.812;2023-07-09T04:25:04;98004.38;;;13.18;84.55
51261;BME280;61705;46.228;24.812;2023-07-09T04:27:31;98007.19;;;13.15;84.40
51261;BME280;61705;46.228;24.812;2023-07-09T04:29:58;97998.56;;;13.29;84.09
51261;BME280;61705;46.228;24.812;2023-07-09T04:32:25;98007.56;;;13.77;82.70
51261;BME280;61705;46.228;24.812;2023-07-09T04:34:51;98000.91;;;14.02;81.27
51261;BME280;61705;46.228;24.812;2023-07-09T04:37:18;97994.53;;;14.06;80.52
51261;BME280;61705;46.228;24.812;2023-07-09T04:39:45;98007.56;;;13.77;81.52
51261;BME280;61705;46.228;24.812;2023-07-09T04:42:14;97999.53;;;13.79;81.76
51261;BME280;61705;46.228;24.812;2023-07-09T04:44:41;98004.13;;;13.75;82.42
51261;BME280;61705;46.228;24.812;2023-07-09T04:47:08;97999.72;;;13.91;82.10
51261;BME280;61705;46.228;24.812;2023-07-09T04:49:35;98006.97;;;14.05;81.52
51261;BME280;61705;46.228;24.812;2023-07-09T04:52:01;98003.44;;;14.20;81.21
51261;BME280;61705;46.228;24.812;2023-07-09T04:54:28;98003.72;;;14.32;80.63
51261;BME280;61705;46.228;24.812;2023-07-09T04:56:55;98010.22;;;14.42;80.28
51261;BME280;61705;46.228;24.812;2023-07-09T04:59:22;98007.91;;;14.20;80.75
51261;BME280;61705;46.228;24.812;2023-07-09T05:01:49;98008.72;;;14.05;81.85
51261;BME280;61705;46.228;24.812;2023-07-09T05:04:16;98012.34;;;14.04;82.49
51261;BME280;61705;46.228;24.812;2023-07-09T05:06:44;98007.41;;;14.29;81.40
51261;BME280;61705;46.228;24.812;2023-07-09T05:09:11;98010.47;;;14.21;82.10
51261;BME280;61705;46.228;24.812;2023-07-09T05:11:37;98013.97;;;14.22;82.15
51261;BME280;61705;46.228;24.812;2023-07-09T05:14:04;98018.03;;;14.29;82.02
51261;BME280;61705;46.228;24.812;2023-07-09T05:16:30;98008.28;;;14.30;81.12
51261;BME280;61705;46.228;24.812;2023-07-09T05:18:57;98011.06;;;13.95;82.05
51261;BME280;61705;46.228;24.812;2023-07-09T05:21:24;98013.25;;;13.87;82.99
51261;BME280;61705;46.228;24.812;2023-07-09T05:23:51;98001.50;;;13.91;83.07
51261;BME280;61705;46.228;24.812;2023-07-09T05:26:17;98004.09;;;14.08;82.88
51261;BME280;61705;46.228;24.812;2023-07-09T05:28:44;98002.13;;;14.12;82.80
51261;BME280;61705;46.228;24.812;2023-07-09T05:31:11;98003.44;;;14.20;82.65
51261;BME280;61705;46.228;24.812;2023-07-09T05:33:38;98004.56;;;14.16;82.50
51261;BME280;61705;46.228;24.812;2023-07-09T05:36:05;97994.25;;;14.10;82.66
51261;BME280;61705;46.228;24.812;2023-07-09T05:38:31;97996.16;;;14.24;82.58
51261;BME280;61705;46.228;24.812;2023-07-09T05:41:01;97998.00;;;14.55;81.74
51261;BME280;61705;46.228;24.812;2023-07-09T05:43:29;97998.25;;;14.66;80.85
51261;BME280;61705;46.228;24.812;2023-07-09T05:45:56;97996.78;;;14.77;81.01
51261;BME280;61705;46.228;24.812;2023-07-09T05:48:23;97999.19;;;14.65;81.38
51261;BME280;61705;46.228;24.812;2023-07-09T05:50:52;97995.16;;;14.74;81.89
51261;BME280;61705;46.228;24.812;2023-07-09T05:53:19;97995.13;;;14.90;81.66
51261;BME280;61705;46.228;24.812;2023-07-09T05:55:45;98001.13;;;14.93;81.64
51261;BME280;61705;46.228;24.812;2023-07-09T05:58:12;97996.47;;;14.97;81.45
51261;BME280;61705;46.228;24.812;2023-07-09T06:00:38;98005.56;;;15.09;81.70
51261;BME280;61705;46.228;24.812;2023-07-09T06:03:07;97997.13;;;15.16;80.93
51261;BME280;61705;46.228;24.812;2023-07-09T06:05:34;97992.47;;;15.20;81.29
51261;BME280;61705;46.228;24.812;2023-07-09T06:08:02;97989.19;;;15.45;80.68
51261;BME280;61705;46.228;24.812;2023-07-09T06:10:29;97996.25;;;15.46;80.51
51261;BME280;61705;46.228;24.812;2023-07-09T06:12:56;97991.47;;;15.67;79.91
51261;BME280;61705;46.228;24.812;2023-07-09T06:15:25;97986.44;;;15.91;78.94
51261;BME280;61705;46.228;24.812;2023-07-09T06:17:52;97984.72;;;16.04;78.62
51261;BME280;61705;46.228;24.812;2023-07-09T06:20:19;97982.88;;;16.19;78.72
51261;BME280;61705;46.228;24.812;2023-07-09T06:22:45;97975.44;;;16.39;77.80
51261;BME280;61705;46.228;24.812;2023-07-09T06:25:12;97976.38;;;16.52;77.32
51261;BME280;61705;46.228;24.812;2023-07-09T06:27:42;97978.06;;;16.53;77.12
51261;BME280;61705;46.228;24.812;2023-07-09T06:30:08;97975.78;;;16.47;77.57
51261;BME280;61705;46.228;24.812;2023-07-09T06:32:35;97972.59;;;16.69;76.88
51261;BME280;61705;46.228;24.812;2023-07-09T06:35:02;97966.72;;;16.91;76.58
51261;BME280;61705;46.228;24.812;2023-07-09T06:37:29;97965.47;;;16.96;76.95
51261;BME280;61705;46.228;24.812;2023-07-09T06:39:55;97960.16;;;17.22;75.58
51261;BME280;61705;46.228;24.812;2023-07-09T06:42:22;97954.22;;;17.31;73.89
51261;BME280;61705;46.228;24.812;2023-07-09T06:44:48;97947.47;;;17.38;72.88
51261;BME280;61705;46.228;24.812;2023-07-09T06:47:15;97955.81;;;17.46;72.55
51261;BME280;61705;46.228;24.812;2023-07-09T06:49:41;97951.75;;;17.53;72.81
51261;BME280;61705;46.228;24.812;2023-07-09T06:52:08;97949.44;;;17.74;72.15
51261;BME280;61705;46.228;24.812;2023-07-09T06:54:34;97955.97;;;17.96;71.63
51261;BME280;61705;46.228;24.812;2023-07-09T06:57:01;97947.25;;;18.18;70.73
51261;BME280;61705;46.228;24.812;2023-07-09T06:59:28;97951.72;;;18.30;70.56
51261;BME280;61705;46.228;24.812;2023-07-09T07:01:54;97946.47;;;18.29;70.18
51261;BME280;61705;46.228;24.812;2023-07-09T07:04:21;97949.13;;;18.29;70.31
51261;BME280;61705;46.228;24.812;2023-07-09T07:06:47;97949.41;;;18.50;69.63
51261;BME280;61705;46.228;24.812;2023-07-09T07:09:16;97944.56;;;18.55;69.47
51261;BME280;61705;46.228;24.812;2023-07-09T07:11:42;97935.81;;;18.77;68.92
51261;BME280;61705;46.228;24.812;2023-07-09T07:14:09;97941.88;;;18.91;68.59
51261;BME280;61705;46.228;24.812;2023-07-09T07:16:35;97940.03;;;18.92;68.60
51261;BME280;61705;46.228;24.812;2023-07-09T07:19:02;97933.31;;;18.86;68.55
51261;BME280;61705;46.228;24.812;2023-07-09T07:21:29;97929.34;;;19.03;67.96
51261;BME280;61705;46.228;24.812;2023-07-09T07:23:55;97922.13;;;19.28;67.61
51261;BME280;61705;46.228;24.812;2023-07-09T07:26:21;97924.41;;;19.21;67.87
51261;BME280;61705;46.228;24.812;2023-07-09T07:28:48;97928.22;;;19.30;68.05
51261;BME280;61705;46.228;24.812;2023-07-09T07:31:16;97920.34;;;19.51;67.70
51261;BME280;61705;46.228;24.812;2023-07-09T07:33:43;97916.59;;;19.53;66.88
51261;BME280;61705;46.228;24.812;2023-07-09T07:36:10;97909.47;;;19.76;65.78
51261;BME280;61705;46.228;24.812;2023-07-09T07:38:40;97915.03;;;19.96;64.58
51261;BME280;61705;46.228;24.812;2023-07-09T07:41:06;57215.63;;;19.95;100.00
51261;BME280;61705;46.228;24.812;2023-07-09T07:43:33;57215.63;;;-144.75;100.00
51261;BME280;61705;46.228;24.812;2023-07-09T07:46:00;97916.03;;;19.95;64.32
51261;BME280;61705;46.228;24.812;2023-07-09T07:48:27;97916.03;;;19.95;64.32
51261;BME280;61705;46.228;24.812;2023-07-09T07:51:00;97910.66;;;20.17;61.68
51261;BME280;61705;46.228;24.812;2023-07-09T07:53:31;97905.84;;;20.43;62.03
51261;BME280;61705;46.228;24.812;2023-07-09T07:55:58;97908.84;;;20.61;61.21
51261;BME280;61705;46.228;24.812;2023-07-09T07:58:24;97908.50;;;20.66;60.99
51261;BME280;61705;46.228;24.812;2023-07-09T08:00:55;97908.34;;;20.67;61.02
51261;BME280;61705;46.228;24.812;2023-07-09T08:03:23;97908.75;;;20.63;61.77
51261;BME280;61705;46.228;24.812;2023-07-09T08:05:56;97913.13;;;20.64;61.75
51261;BME280;61705;46.228;24.812;2023-07-09T08:08:27;97909.94;;;20.70;62.03
51261;BME280;61705;46.228;24.812;2023-07-09T08:11:03;97902.63;;;20.72;61.69
51261;BME280;61705;46.228;24.812;2023-07-09T08:13:35;97908.25;;;20.69;62.13
51261;BME280;61705;46.228;24.812;2023-07-09T08:16:04;97908.34;;;20.67;61.74
51261;BME280;61705;46.228;24.812;2023-07-09T08:18:31;97898.34;;;20.69;60.84
51261;BME280;61705;46.228;24.812;2023-07-09T08:20:59;97901.13;;;20.79;61.15
51261;BME280;61705;46.228;24.812;2023-07-09T08:23:30;97901.81;;;20.92;60.98
51261;BME280;61705;46.228;24.812;2023-07-09T08:25:58;97905.41;;;21.02;60.31
51261;BME280;61705;46.228;24.812;2023-07-09T08:28:29;97903.09;;;20.98;59.10
51261;BME280;61705;46.228;24.812;2023-07-09T08:30:56;97896.13;;;21.06;58.05
51261;BME280;61705;46.228;24.812;2023-07-09T08:33:24;97881.25;;;21.23;54.81
51261;BME280;61705;46.228;24.812;2023-07-09T08:35:53;97875.56;;;21.38;53.04
51261;BME280;61705;46.228;24.812;2023-07-09T08:38:21;97871.00;;;21.59;50.86
51261;BME280;61705;46.228;24.812;2023-07-09T08:41:18;97880.81;;;21.70;48.59
51261;BME280;61705;46.228;24.812;2023-07-09T08:49:03;97889.44;;;22.04;48.09
51261;BME280;61705;46.228;24.812;2023-07-09T08:51:40;97887.59;;;22.05;48.22
51261;BME280;61705;46.228;24.812;2023-07-09T08:54:25;97880.69;;;22.12;47.07
51261;BME280;61705;46.228;24.812;2023-07-09T08:56:59;97883.25;;;22.13;45.84
51261;BME280;61705;46.228;24.812;2023-07-09T08:59:26;97893.25;;;22.22;46.57
51261;BME280;61705;46.228;24.812;2023-07-09T09:01:56;97882.03;;;22.27;47.26
51261;BME280;61705;46.228;24.812;2023-07-09T09:04:30;97880.91;;;22.20;47.27
51261;BME280;61705;46.228;24.812;2023-07-09T09:07:19;97874.41;;;22.42;46.49
51261;BME280;61705;46.228;24.812;2023-07-09T09:09:57;97873.28;;;22.44;45.41
51261;BME280;61705;46.228;24.812;2023-07-09T09:12:33;97880.38;;;22.55;45.18
51261;BME280;61705;46.228;24.812;2023-07-09T09:15:23;97882.94;;;22.76;45.13
51261;BME280;61705;46.228;24.812;2023-07-09T09:17:52;97885.66;;;22.76;45.44
51261;BME280;61705;46.228;24.812;2023-07-09T09:20:26;97896.00;;;22.71;46.08
51261;BME280;61705;46.228;24.812;2023-07-09T09:26:41;97884.53;;;22.88;46.35
51261;BME280;61705;46.228;24.812;2023-07-09T09:29:13;97884.66;;;22.87;45.67
51261;BME280;61705;46.228;24.812;2023-07-09T09:31:43;97884.81;;;22.85;46.30
51261;BME280;61705;46.228;24.812;2023-07-09T09:34:18;97874.63;;;23.18;46.40
51261;BME280;61705;46.228;24.812;2023-07-09T09:36:49;97878.84;;;23.11;46.77
51261;BME280;61705;46.228;24.812;2023-07-09T09:39:20;97880.41;;;23.33;46.87
51261;BME280;61705;46.228;24.812;2023-07-09T09:41:47;97881.41;;;23.22;45.67
51261;BME280;61705;46.228;24.812;2023-07-09T09:44:24;97876.03;;;23.32;45.53
51261;BME280;61705;46.228;24.812;2023-07-09T09:46:52;97877.41;;;23.36;45.21
51261;BME280;61705;46.228;24.812;2023-07-09T09:49:19;97878.09;;;23.48;46.24
51261;BME280;61705;46.228;24.812;2023-07-09T09:51:47;97873.13;;;23.53;45.40
51261;BME280;61705;46.228;24.812;2023-07-09T09:54:34;97862.81;;;23.38;45.07
51261;BME280;61705;46.228;24.812;2023-07-09T09:57:01;97866.53;;;23.65;45.55
51261;BME280;61705;46.228;24.812;2023-07-09T09:59:32;97863.97;;;23.83;45.51
51261;BME280;61705;46.228;24.812;2023-07-09T10:02:15;97861.41;;;23.81;46.60
51261;BME280;61705;46.228;24.812;2023-07-09T10:04:43;97849.50;;;23.64;45.89
51261;BME280;61705;46.228;24.812;2023-07-09T10:07:29;97870.19;;;23.36;47.22
51261;BME280;61705;46.228;24.812;2023-07-09T10:09:58;97866.53;;;23.65;45.17
51261;BME280;61705;46.228;24.812;2023-07-09T10:12:55;97858.88;;;23.60;45.08
51261;BME280;61705;46.228;24.812;2023-07-09T10:15:42;97855.59;;;23.76;45.18
51261;BME280;61705;46.228;24.812;2023-07-09T10:18:53;97855.13;;;23.91;44.08
51261;BME280;61705;46.228;24.812;2023-07-09T10:21:27;97844.97;;;24.02;44.19
51261;BME280;61705;46.228;24.812;2023-07-09T10:26:33;97853.22;;;24.28;44.83
51261;BME280;61705;46.228;24.812;2023-07-09T10:29:28;97859.81;;;24.16;45.69
51261;BME280;61705;46.228;24.812;2023-07-09T10:32:09;97844.88;;;24.40;43.57
51261;BME280;61705;46.228;24.812;2023-07-09T10:35:03;97859.22;;;24.22;43.45
51261;BME280;61705;46.228;24.812;2023-07-09T10:40:11;97847.84;;;24.64;44.47
51261;BME280;61705;46.228;24.812;2023-07-09T10:42:52;97853.44;;;24.63;45.34
51261;BME280;61705;46.228;24.812;2023-07-09T10:45:43;97848.19;;;24.33;44.75
51261;BME280;61705;46.228;24.812;2023-07-09T10:48:16;97843.63;;;24.62;44.76
51261;BME280;61705;46.228;24.812;2023-07-09T10:50:53;97849.41;;;24.85;43.13
51261;BME280;61705;46.228;24.812;2023-07-09T10:53:28;97839.88;;;24.98;42.60
51261;BME280;61705;46.228;24.812;2023-07-09T11:00:57;97842.97;;;25.21;43.26
51261;BME280;61705;46.228;24.812;2023-07-09T11:06:34;97836.25;;;25.25;41.22
51261;BME280;61705;46.228;24.812;2023-07-09T11:09:06;97838.16;;;25.59;41.44
51261;BME280;61705;46.228;24.812;2023-07-09T11:11:42;97838.91;;;25.77;41.15
51261;BME280;61705;46.228;24.812;2023-07-09T11:17:22;97831.09;;;26.00;40.72
51261;BME280;61705;46.228;24.812;2023-07-09T11:19:59;97839.47;;;25.81;41.29
51261;BME280;61705;46.228;24.812;2023-07-09T11:22:40;97836.28;;;25.86;39.89
51261;BME280;61705;46.228;24.812;2023-07-09T11:25:13;97826.31;;;25.94;39.97
51261;BME280;61705;46.228;24.812;2023-07-09T11:27:51;97826.56;;;26.09;39.98
51261;BME280;61705;46.228;24.812;2023-07-09T11:30:29;97827.41;;;26.10;39.81
51261;BME280;61705;46.228;24.812;2023-07-09T11:32:58;97816.59;;;25.49;39.98
51261;BME280;61705;46.228;24.812;2023-07-09T11:35:51;97826.19;;;26.04;40.23
51261;BME280;61705;46.228;24.812;2023-07-09T11:38:23;97818.69;;;26.40;38.60
51261;BME280;61705;46.228;24.812;2023-07-09T11:40:52;97814.06;;;26.24;38.00
51261;BME280;61705;46.228;24.812;2023-07-09T11:43:34;97823.91;;;25.83;40.34
51261;BME280;61705;46.228;24.812;2023-07-09T11:46:14;97813.59;;;25.26;39.21
51261;BME280;61705;46.228;24.812;2023-07-09T11:48:44;97819.91;;;25.95;38.65
51261;BME280;61705;46.228;24.812;2023-07-09T11:51:21;97814.13;;;26.41;38.86
51261;BME280;61705;46.228;24.812;2023-07-09T11:53:52;97803.19;;;27.00;37.36
51261;BME280;61705;46.228;24.812;2023-07-09T11:56:20;97810.81;;;27.29;37.00
51261;BME280;61705;46.228;24.812;2023-07-09T11:58:52;97801.47;;;27.31;37.17
51261;BME280;61705;46.228;24.812;2023-07-09T12:01:43;97807.94;;;27.30;37.64
51261;BME280;61705;46.228;24.812;2023-07-09T12:04:13;97802.69;;;27.21;38.46
51261;BME280;61705;46.228;24.812;2023-07-09T12:06:42;97802.69;;;27.21;37.22
51261;BME280;61705;46.228;24.812;2023-07-09T12:09:20;97797.56;;;27.34;37.68
51261;BME280;61705;46.228;24.812;2023-07-09T12:11:49;97804.22;;;27.15;37.69
51261;BME280;61705;46.228;24.812;2023-07-09T12:14:19;97788.59;;;27.17;37.86
51261;BME280;61705;46.228;24.812;2023-07-09T12:16:48;97792.06;;;27.58;37.29
51261;BME280;61705;46.228;24.812;2023-07-09T12:19:19;97804.50;;;27.53;37.04
51261;BME280;61705;46.228;24.812;2023-07-09T12:21:48;97798.41;;;27.34;35.73
51261;BME280;61705;46.228;24.812;2023-07-09T12:24:28;97794.69;;;27.35;36.25
51261;BME280;61705;46.228;24.812;2023-07-09T12:26:58;97784.75;;;27.83;34.55
51261;BME280;61705;46.228;24.812;2023-07-09T12:29:26;97790.41;;;28.05;34.77
51261;BME280;61705;46.228;24.812;2023-07-09T12:31:59;97779.88;;;28.41;34.34
51261;BME280;61705;46.228;24.812;2023-07-09T12:34:26;97784.34;;;27.31;36.72
51261;BME280;61705;46.228;24.812;2023-07-09T12:36:57;97783.28;;;27.56;36.07
51261;BME280;61705;46.228;24.812;2023-07-09T12:39:26;97787.31;;;27.77;35.78
51261;BME280;61705;46.228;24.812;2023-07-09T12:42:00;97795.69;;;27.98;34.76
51261;BME280;61705;46.228;24.812;2023-07-09T12:44:33;97777.34;;;27.53;34.85
51261;BME280;61705;46.228;24.812;2023-07-09T12:47:02;97791.78;;;28.01;35.90
51261;BME280;61705;46.228;24.812;2023-07-09T12:49:30;97783.38;;;28.73;34.30
51261;BME280;61705;46.228;24.812;2023-07-09T12:51:58;97784.41;;;28.72;35.21
51261;BME280;61705;46.228;24.812;2023-07-09T12:54:27;97774.63;;;28.31;35.13
51261;BME280;61705;46.228;24.812;2023-07-09T12:56:54;97769.47;;;28.68;34.85
51261;BME280;61705;46.228;24.812;2023-07-09T12:59:24;97776.34;;;29.01;33.92
51261;BME280;61705;46.228;24.812;2023-07-09T13:02:02;97787.28;;;28.70;35.09
51261;BME280;61705;46.228;24.812;2023-07-09T13:04:32;97781.56;;;28.34;35.41
51261;BME280;61705;46.228;24.812;2023-07-09T13:06:59;97784.50;;;28.78;34.17
51261;BME280;61705;46.228;24.812;2023-07-09T13:09:27;97774.59;;;28.86;32.94
51261;BME280;61705;46.228;24.812;2023-07-09T13:11:54;97777.31;;;29.09;32.00
51261;BME280;61705;46.228;24.812;2023-07-09T13:14:22;97771.03;;;29.23;32.50
51261;BME280;61705;46.228;24.812;2023-07-09T13:16:50;97772.06;;;29.22;32.82
51261;BME280;61705;46.228;24.812;2023-07-09T13:19:17;97776.78;;;29.13;32.19
51261;BME280;61705;46.228;24.812;2023-07-09T13:21:44;97776.00;;;29.19;32.08
51261;BME280;61705;46.228;24.812;2023-07-09T13:24:15;97776.34;;;29.54;33.34
51261;BME280;61705;46.228;24.812;2023-07-09T13:26:43;97764.00;;;29.43;32.83
51261;BME280;61705;46.228;24.812;2023-07-09T13:29:17;97775.91;;;29.65;32.77
51261;BME280;61705;46.228;24.812;2023-07-09T13:31:44;97771.59;;;30.22;32.56